sensor_id;sensor_type;location;lat;lon;timestamp;pressure;altitude;pressure_sealevel;temperature;humidity
35704;BME280;21820;51.112;13.762;2022-09-09T00:00:14;99042.47;;;24.31;63.70
35704;BME280;21820;51.112;13.762;2022-09-09T00:02:52;99026.75;;;24.23;63.98
35704;BME280;21820;51.112;13.762;2022-09-09T00:05:23;99050.84;;;24.35;63.59
35704;BME280;21820;51.112;13.762;2022-09-09T00:07:52;99053.66;;;24.33;64.21
35704;BME280;21820;51.112;13.762;2022-09-09T00:15:16;99044.13;;;24.32;64.15
35704;BME280;21820;51.112;13.762;2022-09-09T00:18:03;99041.50;;;24.32;64.33
35704;BME280;21820;51.112;13.762;2022-09-09T00:21:32;99042.78;;;24.36;63.99
35704;BME280;21820;51.112;13.762;2022-09-09T00:23:29;99037.06;;;24.33;64.37
35704;BME280;21820;51.112;13.762;2022-09-09T00:28:41;99042.47;;;24.31;63.69
35704;BME280;21820;51.112;13.762;2022-09-09T00:31:11;99023.47;;;24.21;64.13
35704;BME280;21820;51.112;13.762;2022-09-09T00:33:36;99032.63;;;24.33;63.51
35704;BME280;21820;51.112;13.762;2022-09-09T00:36:04;99037.72;;;24.35;63.64
35704;BME280;21820;51.112;13.762;2022-09-09T00:38:35;99036.09;;;24.34;63.99
35704;BME280;21820;51.112;13.762;2022-09-09T00:41:12;99037.72;;;24.35;63.60
35704;BME280;21820;51.112;13.762;2022-09-09T00:43:40;99038.06;;;24.32;63.65
35704;BME280;21820;51.112;13.762;2022-09-09T00:54:15;99038.72;;;24.34;63.91
35704;BME280;21820;51.112;13.762;2022-09-09T00:56:53;99039.84;;;24.31;63.60
35704;BME280;21820;51.112;13.762;2022-09-09T00:59:32;99042.31;;;24.33;63.68
35704;BME280;21820;51.112;13.762;2022-09-09T01:02:04;99020.84;;;24.21;63.53
35704;BME280;21820;51.112;13.762;2022-09-09T01:04:34;99048.38;;;24.33;64.13
35704;BME280;21820;51.112;13.762;2022-09-09T01:07:08;99038.38;;;24.37;63.56
35704;BME280;21820;51.112;13.762;2022-09-09T01:12:15;99043.78;;;24.35;63.67
35704;BME280;21820;51.112;13.762;2022-09-09T01:17:26;99046.59;;;24.34;63.57
35704;BME280;21820;51.112;13.762;2022-09-09T01:20:10;99049.41;;;24.32;63.41
35704;BME280;21820;51.112;13.762;2022-09-09T01:27:48;99046.41;;;24.35;63.53
35704;BME280;21820;51.112;13.762;2022-09-09T01:30:15;99052.19;;;24.31;63.69
35704;BME280;21820;51.112;13.762;2022-09-09T01:32:48;99053.00;;;24.31;63.48
35704;BME280;21820;51.112;13.762;2022-09-09T01:35:27;99052.69;;;24.34;63.60
35704;BME280;21820;51.112;13.762;2022-09-09T01:37:55;99046.75;;;24.32;63.36
35704;BME280;21820;51.112;13.762;2022-09-09T01:40:20;99045.28;;;24.30;63.42
35704;BME280;21820;51.112;13.762;2022-09-09T01:42:45;99044.13;;;24.32;63.64
35704;BME280;21820;51.112;13.762;2022-09-09T01:45:10;99040.84;;;24.30;63.72
35704;BME280;21820;51.112;13.762;2022-09-09T01:47:36;99046.09;;;24.30;64.01
35704;BME280;21820;51.112;13.762;2022-09-09T01:50:01;99030.34;;;24.30;64.05
35704;BME280;21820;51.112;13.762;2022-09-09T01:52:28;99032.63;;;24.33;64.03
35704;BME280;21820;51.112;13.762;2022-09-09T01:54:53;99037.06;;;24.33;63.85
35704;BME280;21820;51.112;13.762;2022-09-09T01:57:21;99042.47;;;24.31;63.52
35704;BME280;21820;51.112;13.762;2022-09-09T02:02:22;99039.84;;;24.31;64.00
35704;BME280;21820;51.112;13.762;2022-09-09T02:04:50;99033.81;;;24.31;63.53
35704;BME280;21820;51.112;13.762;2022-09-09T02:07:29;99039.84;;;24.31;63.21
35704;BME280;21820;51.112;13.762;2022-09-09T02:12:33;99029.53;;;24.30;63.22
35704;BME280;21820;51.112;13.762;2022-09-09T02:15:02;99030.19;;;24.32;63.38
35704;BME280;21820;51.112;13.762;2022-09-09T02:17:30;99032.97;;;24.30;64.01
35704;BME280;21820;51.112;13.762;2022-09-09T02:20:03;99038.22;;;24.30;64.02
35704;BME280;21820;51.112;13.762;2022-09-09T02:22:29;99039.84;;;24.31;63.61
35704;BME280;21820;51.112;13.762;2022-09-09T02:24:56;99041.50;;;24.32;63.44
35704;BME280;21820;51.112;13.762;2022-09-09T02:27:24;99044.13;;;24.32;63.50
35704;BME280;21820;51.112;13.762;2022-09-09T02:29:49;99046.75;;;24.32;63.79
35704;BME280;21820;51.112;13.762;2022-09-09T02:32:17;99025.94;;;24.23;63.50
35704;BME280;21820;51.112;13.762;2022-09-09T02:34:48;99039.06;;;24.31;63.12
35704;BME280;21820;51.112;13.762;2022-09-09T02:37:15;99033.81;;;24.31;63.54
35704;BME280;21820;51.112;13.762;2022-09-09T02:39:42;99043.47;;;24.30;63.85
35704;BME280;21820;51.112;13.762;2022-09-09T02:42:07;99031.34;;;24.21;63.58
35704;BME280;21820;51.112;13.762;2022-09-09T02:44:33;99032.97;;;24.30;63.48
35704;BME280;21820;51.112;13.762;2022-09-09T02:52:20;99039.06;;;24.31;63.04
35704;BME280;21820;51.112;13.762;2022-09-09T02:54:50;99027.25;;;24.27;63.22
35704;BME280;21820;51.112;13.762;2022-09-09T02:59:45;99039.84;;;24.31;63.11
35704;BME280;21820;51.112;13.762;2022-09-09T03:02:11;99054.00;;;24.30;63.69
35704;BME280;21820;51.112;13.762;2022-09-09T03:04:38;99032.16;;;24.30;63.31
35704;BME280;21820;51.112;13.762;2022-09-09T03:07:03;99042.00;;;24.28;63.37
35704;BME280;21820;51.112;13.762;2022-09-09T03:09:29;99024.81;;;24.17;63.36
35704;BME280;21820;51.112;13.762;2022-09-09T03:11:54;99036.59;;;24.29;63.78
35704;BME280;21820;51.112;13.762;2022-09-09T03:14:20;99024.31;;;24.22;63.29
35704;BME280;21820;51.112;13.762;2022-09-09T03:16:47;99039.38;;;24.28;63.24
35704;BME280;21820;51.112;13.762;2022-09-09T03:19:12;99043.47;;;24.30;63.83
35704;BME280;21820;51.112;13.762;2022-09-09T03:21:37;99032.34;;;24.20;63.46
35704;BME280;21820;51.112;13.762;2022-09-09T03:24:02;99043.66;;;24.29;63.81
35704;BME280;21820;51.112;13.762;2022-09-09T03:26:28;99053.34;;;24.28;63.38
35704;BME280;21820;51.112;13.762;2022-09-09T03:28:54;99051.72;;;24.27;63.43
35704;BME280;21820;51.112;13.762;2022-09-09T03:31:19;99031.69;;;24.18;63.78
35704;BME280;21820;51.112;13.762;2022-09-09T03:33:44;99049.09;;;24.27;63.44
35704;BME280;21820;51.112;13.762;2022-09-09T03:36:10;99044.47;;;24.29;63.83
35704;BME280;21820;51.112;13.762;2022-09-09T03:38:35;99049.09;;;24.27;63.76
35704;BME280;21820;51.112;13.762;2022-09-09T03:41:01;99045.63;;;24.27;63.84
35704;BME280;21820;51.112;13.762;2022-09-09T03:43:27;99046.28;;;24.29;63.87
35704;BME280;21820;51.112;13.762;2022-09-09T03:45:52;99042.16;;;24.26;63.84
35704;BME280;21820;51.112;13.762;2022-09-09T03:48:18;99018.56;;;24.18;63.54
35704;BME280;21820;51.112;13.762;2022-09-09T03:50:47;99034.13;;;24.28;63.17
35704;BME280;21820;51.112;13.762;2022-09-09T03:53:13;99025.47;;;24.19;63.35
35704;BME280;21820;51.112;13.762;2022-09-09T03:55:39;99035.94;;;24.27;63.83
35704;BME280;21820;51.112;13.762;2022-09-09T03:58:06;99027.09;;;24.20;63.71
35704;BME280;21820;51.112;13.762;2022-09-09T04:00:32;99039.84;;;24.31;63.35
35704;BME280;21820;51.112;13.762;2022-09-09T04:02:57;99045.47;;;24.28;63.69
35704;BME280;21820;51.112;13.762;2022-09-09T04:05:22;99047.13;;;24.29;63.05
35704;BME280;21820;51.112;13.762;2022-09-09T04:07:48;99046.47;;;24.27;63.17
35704;BME280;21820;51.112;13.762;2022-09-09T04:10:13;99047.75;;;24.31;63.38
35704;BME280;21820;51.112;13.762;2022-09-09T04:12:38;99053.16;;;24.30;63.70
35704;BME280;21820;51.112;13.762;2022-09-09T04:15:03;99052.38;;;24.29;63.40
35704;BME280;21820;51.112;13.762;2022-09-09T04:17:29;99046.28;;;24.29;63.04
35704;BME280;21820;51.112;13.762;2022-09-09T04:19:54;99048.91;;;24.29;63.43
35704;BME280;21820;51.112;13.762;2022-09-09T04:22:20;99053.00;;;24.31;63.21
35704;BME280;21820;51.112;13.762;2022-09-09T04:24:45;99044.47;;;24.29;63.20
35704;BME280;21820;51.112;13.762;2022-09-09T04:27:10;99050.72;;;24.28;63.56
35704;BME280;21820;51.112;13.762;2022-09-09T04:29:35;99060.38;;;24.28;63.77
35704;BME280;21820;51.112;13.762;2022-09-09T04:32:01;99062.03;;;24.29;63.28
35704;BME280;21820;51.112;13.762;2022-09-09T04:34:26;99057.75;;;24.28;63.68
35704;BME280;21820;51.112;13.762;2022-09-09T04:36:51;99051.53;;;24.29;63.51
35704;BME280;21820;51.112;13.762;2022-09-09T04:39:17;99047.44;;;24.26;63.32
35704;BME280;21820;51.112;13.762;2022-09-09T04:41:42;99051.88;;;24.26;63.77
35704;BME280;21820;51.112;13.762;2022-09-09T04:44:07;99037.59;;;24.20;62.83
35704;BME280;21820;51.112;13.762;2022-09-09T04:46:32;99051.72;;;24.27;63.21
35704;BME280;21820;51.112;13.762;2022-09-09T04:48:59;99040.41;;;24.19;62.69
35704;BME280;21820;51.112;13.762;2022-09-09T04:51:24;99054.16;;;24.29;63.21
35704;BME280;21820;51.112;13.762;2022-09-09T04:53:50;99054.69;;;24.24;62.84
35704;BME280;21820;51.112;13.762;2022-09-09T04:56:16;99058.06;;;24.33;62.80
35704;BME280;21820;51.112;13.762;2022-09-09T04:58:42;99059.59;;;24.27;63.25
35704;BME280;21820;51.112;13.762;2022-09-09T05:03:36;99053.34;;;24.28;62.80
35704;BME280;21820;51.112;13.762;2022-09-09T05:06:02;99036.78;;;24.20;63.15
35704;BME280;21820;51.112;13.762;2022-09-09T05:08:28;99046.66;;;24.18;63.50
35704;BME280;21820;51.112;13.762;2022-09-09T05:10:54;99060.56;;;24.26;63.10
35704;BME280;21820;51.112;13.762;2022-09-09T05:13:20;99062.03;;;24.29;63.21
35704;BME280;21820;51.112;13.762;2022-09-09T05:15:54;99056.78;;;24.29;62.83
35704;BME280;21820;51.112;13.762;2022-09-09T05:18:20;99065.50;;;24.29;62.70
35704;BME280;21820;51.112;13.762;2022-09-09T05:20:45;99065.34;;;24.31;62.82
35704;BME280;21820;51.112;13.762;2022-09-09T05:23:10;99064.50;;;24.30;63.04
35704;BME280;21820;51.112;13.762;2022-09-09T05:25:38;99062.22;;;24.27;63.13
35704;BME280;21820;51.112;13.762;2022-09-09T05:28:03;99062.03;;;24.29;63.05
35704;BME280;21820;51.112;13.762;2022-09-09T05:30:29;99071.38;;;24.31;62.66
35704;BME280;21820;51.112;13.762;2022-09-09T05:32:57;99076.16;;;24.28;62.85
35704;BME280;21820;51.112;13.762;2022-09-09T05:35:22;99080.25;;;24.30;62.34
35704;BME280;21820;51.112;13.762;2022-09-09T05:37:48;99080.25;;;24.30;63.31
35704;BME280;21820;51.112;13.762;2022-09-09T05:40:13;99084.19;;;24.26;62.52
35704;BME280;21820;51.112;13.762;2022-09-09T05:42:38;99077.16;;;24.27;62.69
35704;BME280;21820;51.112;13.762;2022-09-09T05:45:04;99090.59;;;24.32;62.74
35704;BME280;21820;51.112;13.762;2022-09-09T05:47:30;99088.31;;;24.29;62.98
35704;BME280;21820;51.112;13.762;2022-09-09T05:49:55;99090.13;;;24.28;63.18
35704;BME280;21820;51.112;13.762;2022-09-09T05:52:20;99090.13;;;24.28;62.92
35704;BME280;21820;51.112;13.762;2022-09-09T05:54:45;99081.59;;;24.26;63.15
35704;BME280;21820;51.112;13.762;2022-09-09T05:57:11;99080.94;;;24.16;63.06
35704;BME280;21820;51.112;13.762;2022-09-09T05:59:36;99096.72;;;24.24;62.86
35704;BME280;21820;51.112;13.762;2022-09-09T06:02:01;99099.34;;;24.24;63.23
35704;BME280;21820;51.112;13.762;2022-09-09T06:04:26;99100.78;;;24.27;62.70
35704;BME280;21820;51.112;13.762;2022-09-09T06:06:52;99098.00;;;24.28;63.47
35704;BME280;21820;51.112;13.762;2022-09-09T06:09:17;99103.09;;;24.30;62.67
35704;BME280;21820;51.112;13.762;2022-09-09T06:11:42;99097.16;;;24.28;63.30
35704;BME280;21820;51.112;13.762;2022-09-09T06:14:08;99098.03;;;24.20;62.68
35704;BME280;21820;51.112;13.762;2022-09-09T06:16:33;99099.34;;;24.24;63.18
35704;BME280;21820;51.112;13.762;2022-09-09T06:18:58;99100.13;;;24.25;62.77
35704;BME280;21820;51.112;13.762;2022-09-09T06:21:31;99097.50;;;24.25;63.07
35704;BME280;21820;51.112;13.762;2022-09-09T06:23:57;99101.63;;;24.27;62.77
35704;BME280;21820;51.112;13.762;2022-09-09T06:26:24;99108.84;;;24.25;63.29
35704;BME280;21820;51.112;13.762;2022-09-09T06:28:50;99107.84;;;24.26;62.91
35704;BME280;21820;51.112;13.762;2022-09-09T06:31:18;99099.47;;;24.23;63.05
35704;BME280;21820;51.112;13.762;2022-09-09T06:33:47;99102.63;;;24.18;62.63
35704;BME280;21820;51.112;13.762;2022-09-09T06:38:37;99100.13;;;24.25;62.72
35704;BME280;21820;51.112;13.762;2022-09-09T06:41:03;99102.59;;;24.26;63.31
35704;BME280;21820;51.112;13.762;2022-09-09T06:43:30;99086.53;;;24.13;62.71
35704;BME280;21820;51.112;13.762;2022-09-09T06:46:00;99091.78;;;24.21;63.40
35704;BME280;21820;51.112;13.762;2022-09-09T06:48:26;99104.44;;;24.26;62.51
35704;BME280;21820;51.112;13.762;2022-09-09T06:51:01;99101.97;;;24.24;62.78
35704;BME280;21820;51.112;13.762;2022-09-09T06:53:27;99084.41;;;24.17;63.33
35704;BME280;21820;51.112;13.762;2022-09-09T06:55:52;99095.06;;;24.23;63.30
35704;BME280;21820;51.112;13.762;2022-09-09T06:58:17;99090.63;;;24.24;62.57
35704;BME280;21820;51.112;13.762;2022-09-09T07:00:43;99097.69;;;24.23;62.62
35704;BME280;21820;51.112;13.762;2022-09-09T07:03:09;99100.31;;;24.23;62.72
35704;BME280;21820;51.112;13.762;2022-09-09T07:05:34;99093.44;;;24.22;63.22
35704;BME280;21820;51.112;13.762;2022-09-09T07:08:00;99098.34;;;24.25;63.37
35704;BME280;21820;51.112;13.762;2022-09-09T07:10:25;99097.34;;;24.26;62.72
35704;BME280;21820;51.112;13.762;2022-09-09T07:12:51;99100.31;;;24.23;62.91
35704;BME280;21820;51.112;13.762;2022-09-09T07:15:17;99100.97;;;24.25;62.99
35704;BME280;21820;51.112;13.762;2022-09-09T07:17:43;99101.13;;;24.24;63.35
35704;BME280;21820;51.112;13.762;2022-09-09T07:20:09;99104.72;;;24.23;62.94
35704;BME280;21820;51.112;13.762;2022-09-09T07:22:34;99092.13;;;24.18;62.69
35704;BME280;21820;51.112;13.762;2022-09-09T07:24:59;99107.22;;;24.24;63.33
35704;BME280;21820;51.112;13.762;2022-09-09T07:27:24;99095.06;;;24.23;62.65
35704;BME280;21820;51.112;13.762;2022-09-09T07:29:50;99093.44;;;24.22;62.61
35704;BME280;21820;51.112;13.762;2022-09-09T07:32:15;99101.97;;;24.24;63.06
35704;BME280;21820;51.112;13.762;2022-09-09T07:34:41;99100.31;;;24.23;63.01
35704;BME280;21820;51.112;13.762;2022-09-09T07:37:06;99098.03;;;24.20;63.13
35704;BME280;21820;51.112;13.762;2022-09-09T07:39:32;99103.25;;;24.28;62.91
35704;BME280;21820;51.112;13.762;2022-09-09T07:41:58;99097.69;;;24.23;62.82
35704;BME280;21820;51.112;13.762;2022-09-09T07:44:24;99107.22;;;24.24;63.25
35704;BME280;21820;51.112;13.762;2022-09-09T07:46:52;99091.97;;;24.12;63.55
35704;BME280;21820;51.112;13.762;2022-09-09T07:49:17;99099.34;;;24.24;62.62
35704;BME280;21820;51.112;13.762;2022-09-09T07:51:44;99107.22;;;24.24;63.06
35704;BME280;21820;51.112;13.762;2022-09-09T07:54:10;99102.41;;;24.28;62.96
35704;BME280;21820;51.112;13.762;2022-09-09T07:56:36;99101.63;;;24.27;62.28
35704;BME280;21820;51.112;13.762;2022-09-09T07:59:02;99107.38;;;24.23;62.97
35704;BME280;21820;51.112;13.762;2022-09-09T08:01:33;99107.53;;;24.21;62.62
35704;BME280;21820;51.112;13.762;2022-09-09T08:04:00;99102.28;;;24.21;62.85
35704;BME280;21820;51.112;13.762;2022-09-09T08:06:27;99113.44;;;24.23;62.99
35704;BME280;21820;51.112;13.762;2022-09-09T08:08:52;99116.56;;;24.27;63.02
35704;BME280;21820;51.112;13.762;2022-09-09T08:11:19;99117.72;;;24.24;62.80
35704;BME280;21820;51.112;13.762;2022-09-09T08:13:45;99119.53;;;24.24;63.24
35704;BME280;21820;51.112;13.762;2022-09-09T08:16:13;99117.06;;;24.22;63.14
35704;BME280;21820;51.112;13.762;2022-09-09T08:18:38;99114.44;;;24.22;63.03
35704;BME280;21820;51.112;13.762;2022-09-09T08:21:17;99114.44;;;24.22;63.31
35704;BME280;21820;51.112;13.762;2022-09-09T08:23:43;99114.63;;;24.21;62.75
35704;BME280;21820;51.112;13.762;2022-09-09T08:28:35;99127.59;;;24.22;62.80
35704;BME280;21820;51.112;13.762;2022-09-09T08:33:32;99124.13;;;24.22;63.25
35704;BME280;21820;51.112;13.762;2022-09-09T08:35:58;99128.53;;;24.21;63.44
35704;BME280;21820;51.112;13.762;2022-09-09T08:38:24;99123.28;;;24.21;62.64
35704;BME280;21820;51.112;13.762;2022-09-09T08:40:49;99124.63;;;24.17;63.29
35704;BME280;21820;51.112;13.762;2022-09-09T08:43:18;99132.84;;;24.22;62.79
35704;BME280;21820;51.112;13.762;2022-09-09T08:48:17;99135.47;;;24.22;62.73
35704;BME280;21820;51.112;13.762;2022-09-09T08:50:45;99135.47;;;24.22;63.47
35704;BME280;21820;51.112;13.762;2022-09-09T08:58:33;99121.69;;;24.12;63.06
35704;BME280;21820;51.112;13.762;2022-09-09T09:08:50;99129.22;;;24.23;63.10
35704;BME280;21820;51.112;13.762;2022-09-09T09:11:18;99117.91;;;24.15;63.37
35704;BME280;21820;51.112;13.762;2022-09-09T09:13:49;99126.59;;;24.23;63.50
35704;BME280;21820;51.112;13.762;2022-09-09T09:16:31;99134.63;;;24.22;63.22
35704;BME280;21820;51.112;13.762;2022-09-09T09:18:58;99141.06;;;24.19;63.35
35704;BME280;21820;51.112;13.762;2022-09-09T09:21:45;99143.50;;;24.21;63.13
35704;BME280;21820;51.112;13.762;2022-09-09T09:24:19;99143.69;;;24.19;63.57
35704;BME280;21820;51.112;13.762;2022-09-09T09:26:45;99151.56;;;24.19;63.55
35704;BME280;21820;51.112;13.762;2022-09-09T09:29:12;99160.06;;;24.21;62.90
35704;BME280;21820;51.112;13.762;2022-09-09T09:31:37;99161.06;;;24.20;62.96
35704;BME280;21820;51.112;13.762;2022-09-09T09:34:03;99162.88;;;24.20;62.94
35704;BME280;21820;51.112;13.762;2022-09-09T09:36:39;99157.63;;;24.20;63.51
35704;BME280;21820;51.112;13.762;2022-09-09T09:39:05;99146.97;;;24.13;62.88
35704;BME280;21820;51.112;13.762;2022-09-09T09:41:40;99166.31;;;24.20;62.99
35704;BME280;21820;51.112;13.762;2022-09-09T09:44:18;99165.31;;;24.21;62.81
35704;BME280;21820;51.112;13.762;2022-09-09T09:46:46;99153.84;;;24.22;63.36
35704;BME280;21820;51.112;13.762;2022-09-09T09:49:11;99158.44;;;24.20;63.24
35704;BME280;21820;51.112;13.762;2022-09-09T09:51:38;99156.47;;;24.22;63.12
35704;BME280;21820;51.112;13.762;2022-09-09T09:54:27;99158.44;;;24.20;63.48
35704;BME280;21820;51.112;13.762;2022-09-09T09:56:50;99151.56;;;24.19;63.43
35704;BME280;21820;51.112;13.762;2022-09-09T09:59:20;99161.06;;;24.20;63.55
35704;BME280;21820;51.112;13.762;2022-09-09T10:01:45;99152.34;;;24.20;63.25
35704;BME280;21820;51.112;13.762;2022-09-09T10:04:18;99153.19;;;24.20;63.64
35704;BME280;21820;51.112;13.762;2022-09-09T10:06:45;99151.72;;;24.26;62.78
35704;BME280;21820;51.112;13.762;2022-09-09T10:09:29;99141.06;;;24.19;63.58
35704;BME280;21820;51.112;13.762;2022-09-09T10:12:03;99137.44;;;24.20;62.88
35704;BME280;21820;51.112;13.762;2022-09-09T10:14:44;99132.19;;;24.20;63.45
35704;BME280;21820;51.112;13.762;2022-09-09T10:20:45;99126.44;;;24.17;63.39
35704;BME280;21820;51.112;13.762;2022-09-09T10:22:44;99137.09;;;24.23;63.60
35704;BME280;21820;51.112;13.762;2022-09-09T10:30:14;99122.00;;;24.17;63.27
35704;BME280;21820;51.112;13.762;2022-09-09T10:38:13;99132.19;;;24.20;62.89
35704;BME280;21820;51.112;13.762;2022-09-09T10:48:24;99112.34;;;24.18;63.89
35704;BME280;21820;51.112;13.762;2022-09-09T10:53:52;99118.72;;;24.15;63.97
35704;BME280;21820;51.112;13.762;2022-09-09T10:56:19;99111.50;;;24.17;63.86
35704;BME280;21820;51.112;13.762;2022-09-09T10:58:56;99100.16;;;24.17;63.52
35704;BME280;21820;51.112;13.762;2022-09-09T11:01:27;99096.72;;;24.16;64.06
35704;BME280;21820;51.112;13.762;2022-09-09T11:03:56;99097.22;;;23.96;64.53
35704;BME280;21820;51.112;13.762;2022-09-09T11:06:25;99089.38;;;23.88;65.14
35704;BME280;21820;51.112;13.762;2022-09-09T11:08:53;99093.00;;;24.03;64.40
35704;BME280;21820;51.112;13.762;2022-09-09T11:16:29;99100.03;;;24.10;63.40
35704;BME280;21820;51.112;13.762;2022-09-09T11:19:05;99099.34;;;24.16;63.33
35704;BME280;21820;51.112;13.762;2022-09-09T11:21:36;99090.50;;;24.17;63.25
35704;BME280;21820;51.112;13.762;2022-09-09T11:24:03;99093.13;;;24.17;64.01
35704;BME280;21820;51.112;13.762;2022-09-09T11:26:39;99094.56;;;24.20;63.76
35704;BME280;21820;51.112;13.762;2022-09-09T11:31:54;99095.56;;;24.19;63.17
35704;BME280;21820;51.112;13.762;2022-09-09T11:36:56;99095.41;;;24.20;63.16
35704;BME280;21820;51.112;13.762;2022-09-09T11:44:39;99086.72;;;24.12;63.42
35704;BME280;21820;51.112;13.762;2022-09-09T11:47:26;99104.28;;;24.19;63.33
35704;BME280;21820;51.112;13.762;2022-09-09T11:49:54;99098.19;;;24.19;63.50
35704;BME280;21820;51.112;13.762;2022-09-09T11:55:11;99092.13;;;24.18;63.21
35704;BME280;21820;51.112;13.762;2022-09-09T11:57:37;99093.78;;;24.19;63.77
35704;BME280;21820;51.112;13.762;2022-09-09T12:00:03;99088.53;;;24.19;63.40
35704;BME280;21820;51.112;13.762;2022-09-09T12:02:29;99077.00;;;24.20;63.96
35704;BME280;21820;51.112;13.762;2022-09-09T12:05:30;99078.00;;;24.19;63.29
35704;BME280;21820;51.112;13.762;2022-09-09T12:07:52;99080.63;;;24.19;63.93
35704;BME280;21820;51.112;13.762;2022-09-09T12:10:31;99073.56;;;24.20;63.22
35704;BME280;21820;51.112;13.762;2022-09-09T12:16:26;99067.16;;;24.22;63.41
35704;BME280;21820;51.112;13.762;2022-09-09T12:18:36;99062.25;;;24.19;63.40
35704;BME280;21820;51.112;13.762;2022-09-09T12:23:43;99053.84;;;24.24;63.77
35704;BME280;21820;51.112;13.762;2022-09-09T12:26:20;99056.16;;;24.19;63.96
35704;BME280;21820;51.112;13.762;2022-09-09T12:28:52;99061.41;;;24.19;63.57
35704;BME280;21820;51.112;13.762;2022-09-09T12:34:02;99053.72;;;24.17;64.11
35704;BME280;21820;51.112;13.762;2022-09-09T12:36:30;99054.03;;;24.22;63.66
35704;BME280;21820;51.112;13.762;2022-09-09T12:38:58;99066.69;;;24.19;63.76
35704;BME280;21820;51.112;13.762;2022-09-09T12:41:26;99063.53;;;24.23;63.51
35704;BME280;21820;51.112;13.762;2022-09-09T12:44:02;99053.03;;;24.23;63.98
35704;BME280;21820;51.112;13.762;2022-09-09T12:48:53;99028.09;;;24.11;63.88
35704;BME280;21820;51.112;13.762;2022-09-09T12:51:24;99047.28;;;24.20;63.46
35704;BME280;21820;51.112;13.762;2022-09-09T12:53:51;99053.72;;;24.17;63.53
35704;BME280;21820;51.112;13.762;2022-09-09T12:56:23;99050.41;;;24.23;63.54
35704;BME280;21820;51.112;13.762;2022-09-09T12:58:52;99046.16;;;24.22;63.61
35704;BME280;21820;51.112;13.762;2022-09-09T13:01:20;99035.63;;;24.22;63.16
35704;BME280;21820;51.112;13.762;2022-09-09T13:03:46;99034.16;;;24.20;64.06
35704;BME280;21820;51.112;13.762;2022-09-09T13:06:13;99028.28;;;24.18;63.36
35704;BME280;21820;51.112;13.762;2022-09-09T13:08:39;99024.66;;;24.19;63.59
35704;BME280;21820;51.112;13.762;2022-09-09T13:11:07;99023.66;;;24.20;63.89
35704;BME280;21820;51.112;13.762;2022-09-09T13:13:38;99015.94;;;24.18;63.81
35704;BME280;21820;51.112;13.762;2022-09-09T13:16:05;99014.97;;;24.19;64.27
35704;BME280;21820;51.112;13.762;2022-09-09T13:18:36;98998.59;;;24.09;64.00
35704;BME280;21820;51.112;13.762;2022-09-09T13:21:04;98999.22;;;24.19;64.68
35704;BME280;21820;51.112;13.762;2022-09-09T13:23:30;99000.84;;;24.20;63.45
35704;BME280;21820;51.112;13.762;2022-09-09T13:25:59;99004.47;;;24.19;63.81
35704;BME280;21820;51.112;13.762;2022-09-09T13:28:26;99008.06;;;24.18;63.66
35704;BME280;21820;51.112;13.762;2022-09-09T13:30:55;99010.50;;;24.20;63.77
35704;BME280;21820;51.112;13.762;2022-09-09T13:33:24;99005.44;;;24.18;63.81
35704;BME280;21820;51.112;13.762;2022-09-09T13:35:58;99002.81;;;24.18;64.20
35704;BME280;21820;51.112;13.762;2022-09-09T13:38:24;98989.66;;;24.18;64.10
35704;BME280;21820;51.112;13.762;2022-09-09T13:41:00;99004.47;;;24.19;63.83
35704;BME280;21820;51.112;13.762;2022-09-09T13:43:38;99001.84;;;24.19;64.18
35704;BME280;21820;51.112;13.762;2022-09-09T13:46:24;99004.47;;;24.19;64.12
35704;BME280;21820;51.112;13.762;2022-09-09T13:48:53;99010.50;;;24.20;63.94
35704;BME280;21820;51.112;13.762;2022-09-09T13:51:27;99013.63;;;24.23;63.28
35704;BME280;21820;51.112;13.762;2022-09-09T13:53:54;99014.63;;;24.22;63.63
35704;BME280;21820;51.112;13.762;2022-09-09T13:56:19;99008.06;;;24.18;63.35
35704;BME280;21820;51.112;13.762;2022-09-09T13:58:45;99010.69;;;24.18;63.60
35704;BME280;21820;51.112;13.762;2022-09-09T14:01:10;99021.84;;;24.20;63.68
35704;BME280;21820;51.112;13.762;2022-09-09T14:03:36;99003.47;;;24.20;63.35
35704;BME280;21820;51.112;13.762;2022-09-09T14:06:02;99003.81;;;24.17;64.03
35704;BME280;21820;51.112;13.762;2022-09-09T14:08:27;99006.44;;;24.17;63.71
35704;BME280;21820;51.112;13.762;2022-09-09T14:11:01;99005.75;;;24.23;64.02
35704;BME280;21820;51.112;13.762;2022-09-09T14:13:26;99006.75;;;24.22;63.63
35704;BME280;21820;51.112;13.762;2022-09-09T14:15:52;99017.91;;;24.24;63.58
35704;BME280;21820;51.112;13.762;2022-09-09T14:18:18;99016.25;;;24.23;63.61
35704;BME280;21820;51.112;13.762;2022-09-09T14:20:44;99004.91;;;24.23;64.08
35704;BME280;21820;51.112;13.762;2022-09-09T14:23:12;99005.75;;;24.23;63.47
35704;BME280;21820;51.112;13.762;2022-09-09T14:25:39;98996.41;;;24.21;63.38
35704;BME280;21820;51.112;13.762;2022-09-09T14:28:04;98989.50;;;24.20;63.64
35704;BME280;21820;51.112;13.762;2022-09-09T14:30:29;98982.28;;;24.22;63.88
35704;BME280;21820;51.112;13.762;2022-09-09T14:32:55;98985.06;;;24.20;63.08
35704;BME280;21820;51.112;13.762;2022-09-09T14:35:20;98984.72;;;24.23;63.38
35704;BME280;21820;51.112;13.762;2022-09-09T14:37:47;98985.38;;;24.25;63.53
35704;BME280;21820;51.112;13.762;2022-09-09T14:40:13;98979.47;;;24.23;63.76
35704;BME280;21820;51.112;13.762;2022-09-09T14:42:40;98979.66;;;24.22;63.39
35704;BME280;21820;51.112;13.762;2022-09-09T14:45:06;98958.19;;;24.10;63.24
35704;BME280;21820;51.112;13.762;2022-09-09T14:47:31;98968.66;;;24.18;63.58
35704;BME280;21820;51.112;13.762;2022-09-09T14:49:57;98971.78;;;24.22;63.23
35704;BME280;21820;51.112;13.762;2022-09-09T14:52:22;98964.22;;;24.19;63.28